Time;durP1;ratioP1;P1;durP2;ratioP2;P2;SDS_P1;SDS_P2;PMS_P1;PMS_P2;Temp;Humidity;BMP_temperature;BMP_pressure;BME280_temperature;BME280_humidity;BME280_pressure;Samples;Min_cycle;Max_cycle;Signal;HPM_P1;HPM_P2
2023/04/02 00:01:19;;;;;;;8.50;2.95;;;;;;;22.45;33.85;100554.28;143729;598;47007;-71
2023/04/02 00:04:20;;;;;;;6.22;3.30;;;;;;;22.43;33.54;100551.00;143731;599;46008;-71
2023/04/02 00:06:53;;;;;;;9.38;4.00;;;;;;;22.40;33.33;100544.97;143732;608;48006;-70
2023/04/02 00:09:35;;;;;;;8.43;3.28;;;;;;;22.42;33.68;100550.19;143728;616;47928;-70
2023/04/02 00:12:20;;;;;;;8.80;3.15;;;;;;;22.40;34.18;100547.72;143727;568;47928;-70
2023/04/02 00:14:48;;;;;;;;;;;;;;;22.38;33.92;100544.44;143732;981;47009;-69
2023/04/02 00:17:15;;;;;;;8.02;3.53;;;;;;;22.38;34.02;100544.44;143739;575;46002;-70
2023/04/02 00:19:58;;;;;;;8.13;2.97;;;;;;;22.36;34.41;100543.91;143728;647;47010;-70
2023/04/02 00:22:33;;;;;;;11.10;3.20;;;;;;;22.34;34.88;100546.09;143731;687;46928;-71
2023/04/02 00:25:03;;;;;;;7.78;3.60;;;;;;;22.33;34.83;100540.91;143726;575;48004;-72
2023/04/02 00:27:31;;;;;;;9.48;4.00;;;;;;;22.31;35.16;100552.16;143734;617;47002;-71
2023/04/02 00:29:58;;;;;;;8.18;3.65;;;;;;;22.29;35.61;100553.50;143729;630;47010;-70
2023/04/02 00:32:28;;;;;;;9.77;4.25;;;;;;;22.27;35.08;100551.06;143728;749;48004;-70
2023/04/02 00:34:55;;;;;;;7.47;3.53;;;;;;;22.24;34.84;100549.69;143731;595;47008;-70
2023/04/02 00:37:26;;;;;;;8.60;4.57;;;;;;;22.24;34.96;100554.38;143730;577;48004;-71
2023/04/02 00:40:07;;;;;;;9.02;4.35;;;;;;;22.19;35.20;100546.19;143724;572;48010;-72
2023/04/02 00:42:34;;;;;;;10.35;4.12;;;;;;;22.19;34.82;100533.34;143727;572;46006;-71
2023/04/02 00:45:01;;;;;;;10.10;4.22;;;;;;;22.16;35.59;100535.78;143727;625;47009;-70
2023/04/02 00:47:34;;;;;;;13.27;4.18;;;;;;;22.10;35.23;100541.31;143731;601;47004;-71
2023/04/02 00:50:27;;;;;;;7.93;3.78;;;;;;;22.08;35.36;100537.19;143726;597;47010;-71
2023/04/02 00:52:57;;;;;;;6.12;3.65;;;;;;;22.03;35.68;100539.97;143730;582;47007;-70
2023/04/02 00:55:43;;;;;;;9.93;4.57;;;;;;;22.00;35.38;100537.78;143731;757;46008;-70
2023/04/02 00:58:44;;;;;;;9.32;4.53;;;;;;;21.98;35.29;100548.19;143731;717;47004;-70
2023/04/02 01:01:19;;;;;;;9.15;3.90;;;;;;;21.95;35.39;100542.19;143724;612;48013;-71
2023/04/02 01:04:01;;;;;;;8.75;4.10;;;;;;;21.99;35.20;100549.84;143732;574;46006;-71
2023/04/02 01:06:34;;;;;;;8.20;4.00;;;;;;;21.95;35.16;100547.66;143734;579;46926;-71
2023/04/02 01:09:37;;;;;;;8.25;3.65;;;;;;;21.96;35.17;100545.75;143724;584;47006;-70
2023/04/02 01:12:43;;;;;;;8.90;4.05;;;;;;;21.99;35.36;100547.91;143733;591;46928;-71
2023/04/02 01:15:18;;;;;;;5.57;3.65;;;;;;;21.98;35.70;100537.25;143730;600;48006;-71
2023/04/02 01:18:18;;;;;;;12.82;4.12;;;;;;;21.98;35.57;100532.59;143734;603;46008;-71
2023/04/02 01:21:06;;;;;;;7.12;3.78;;;;;;;21.99;36.05;100525.22;143724;567;49004;-70
2023/04/02 01:23:52;;;;;;;7.57;4.37;;;;;;;21.98;35.92;100540.00;143731;576;47010;-72
2023/04/02 01:27:09;;;;;;;10.32;4.07;;;;;;;21.95;36.07;100536.72;143729;709;47006;-72
2023/04/02 01:29:41;;;;;;;9.43;3.80;;;;;;;21.95;35.47;100533.97;143728;581;46009;-70
2023/04/02 01:32:11;;;;;;;9.95;4.30;;;;;;;21.96;35.68;100534.81;143726;589;47008;-70
2023/04/02 01:34:38;;;;;;;7.47;4.30;;;;;;;21.95;36.25;100531.25;143730;576;46010;-71
2023/04/02 01:37:45;;;;;;;9.32;4.37;;;;;;;21.95;36.38;100530.44;143722;589;47006;-70
2023/04/02 01:40:48;;;;;;;8.50;4.35;;;;;;;21.92;36.28;100531.81;143731;599;47017;-71
2023/04/02 01:43:54;;;;;;;8.90;4.37;;;;;;;21.91;35.79;100530.16;143734;656;47004;-71
2023/04/02 01:46:27;;;;;;;7.30;4.30;;;;;;;21.89;36.09;100537.81;143728;759;46010;-71
2023/04/02 01:48:54;;;;;;;8.60;4.22;;;;;;;21.90;36.05;100535.91;143733;584;47006;-70
2023/04/02 01:51:32;;;;;;;7.60;4.15;;;;;;;21.90;36.10;100533.19;143728;593;48008;-70
2023/04/02 01:54:01;;;;;;;10.63;4.62;;;;;;;21.89;36.03;100534.28;143736;686;46004;-70
2023/04/02 01:56:29;;;;;;;6.57;3.80;;;;;;;21.87;35.96;100528.28;143729;671;46012;-70
2023/04/02 01:58:57;;;;;;;17.42;9.18;;;;;;;21.87;36.19;100540.03;143730;597;47007;-70
2023/04/02 02:01:31;;;;;;;59.45;32.33;;;;;;;21.86;36.34;100530.19;143732;584;46008;-69
2023/04/02 02:03:59;;;;;;;72.72;39.95;;;;;;;21.85;36.25;100541.41;143730;575;46006;-70
2023/04/02 02:06:25;;;;;;;51.13;28.92;;;;;;;21.83;36.40;100533.50;143720;569;49012;-72
2023/04/02 02:08:57;;;;;;;39.78;22.80;;;;;;;21.83;36.26;100527.19;143725;759;47006;-71
2023/04/02 02:11:27;;;;;;;28.23;14.90;;;;;;;21.82;36.45;100534.59;143726;588;47016;-70
2023/04/02 02:14:17;;;;;;;14.13;8.13;;;;;;;21.80;36.29;100534.03;143729;569;46006;-70
2023/04/02 02:16:46;;;;;;;20.10;11.30;;;;;;;21.77;36.50;100526.41;143730;572;47012;-70
2023/04/02 02:19:48;;;;;;;16.33;6.32;;;;;;;21.75;36.58;100525.84;143719;587;49010;-71
2023/04/02 02:22:32;;;;;;;8.55;3.97;;;;;;;21.72;36.33;100529.97;143731;596;46009;-71
2023/04/02 02:24:59;;;;;;;;;;;;;;;21.73;36.48;100530.78;143741;985;47002;-70
2023/04/02 02:27:54;;;;;;;6.62;3.53;;;;;;;21.71;36.68;100538.47;143737;586;46012;-71
2023/04/02 02:30:51;;;;;;;13.05;5.03;;;;;;;21.71;36.48;100530.25;143725;578;47006;-71
2023/04/02 02:33:30;;;;;;;14.13;4.32;;;;;;;21.70;36.46;100531.34;143733;660;46008;-71
2023/04/02 02:36:09;;;;;;;10.48;3.35;;;;;;;21.68;36.45;100539.00;143729;573;48008;-70
2023/04/02 02:38:57;;;;;;;7.37;3.50;;;;;;;21.68;36.05;100539.81;143728;661;46010;-70
2023/04/02 02:41:50;;;;;;;8.38;2.90;;;;;;;21.68;36.11;100537.09;143727;568;49004;-71
2023/04/02 02:44:34;;;;;;;7.90;3.25;;;;;;;21.68;36.24;100536.28;143731;578;46009;-72
2023/04/02 02:47:15;;;;;;;12.13;3.95;;;;;;;21.65;36.46;100527.53;143735;696;46006;-70
2023/04/02 02:49:49;;;;;;;8.00;3.50;;;;;;;21.67;36.22;100543.62;143729;576;47010;-71
2023/04/02 02:52:27;;;;;;;9.57;3.95;;;;;;;21.68;36.54;100542.53;143734;588;46006;-71
2023/04/02 02:54:57;;;;;;;8.27;3.50;;;;;;;21.67;36.33;100549.09;143727;597;47008;-71
2023/04/02 02:57:33;;;;;;;11.05;3.90;;;;;;;21.67;36.74;100546.38;143729;614;46004;-71
2023/04/02 03:00:01;;;;;;;11.30;3.40;;;;;;;21.65;36.57;100560.34;143729;676;47011;-71
2023/04/02 03:02:28;;;;;;;9.75;3.53;;;;;;;21.64;36.45;100550.50;143731;713;46006;-71
2023/04/02 03:04:55;;;;;;;10.32;4.45;;;;;;;21.65;36.35;100546.66;143730;589;47008;-70
2023/04/02 03:07:25;;;;;;;11.12;5.82;;;;;;;21.65;36.94;100560.34;143727;765;47004;-70
2023/04/02 03:10:19;;;;;;;8.50;3.92;;;;;;;21.66;36.44;100561.12;143728;637;48010;-70
2023/04/02 03:13:18;;;;;;;9.70;4.35;;;;;;;21.65;36.92;100557.59;143732;709;46006;-70
2023/04/02 03:16:24;;;;;;;6.50;3.40;;;;;;;21.62;36.90;100552.69;143728;587;48000;-70
2023/04/02 03:19:13;;;;;;;9.95;4.07;;;;;;;21.60;37.03;100563.06;143736;588;47002;-71
2023/04/02 03:22:11;;;;;;;11.65;4.05;;;;;;;21.60;37.03;100562.22;143727;589;47929;-70
2023/04/02 03:25:01;;;;;;;9.95;3.55;;;;;;;21.58;36.72;100562.50;143713;761;50006;-71
2023/04/02 03:27:35;;;;;;;11.50;4.35;;;;;;;21.58;36.86;100564.41;143733;593;46006;-72
2023/04/02 03:30:35;;;;;;;8.05;3.60;;;;;;;21.59;37.22;100566.06;143730;573;47002;-74
2023/04/02 03:33:08;;;;;;;10.38;4.70;;;;;;;21.57;37.29;100563.59;143733;579;46928;-71
2023/04/02 03:35:55;;;;;;;9.18;4.00;;;;;;;21.57;37.48;100563.59;143729;598;47004;-72
2023/04/02 03:38:31;;;;;;;9.45;3.85;;;;;;;21.59;38.00;100563.31;143733;710;46006;-71
2023/04/02 03:41:20;;;;;;;11.02;3.72;;;;;;;21.58;37.71;100564.41;143734;601;47006;-71
2023/04/02 03:43:52;;;;;;;8.73;4.30;;;;;;;21.58;38.06;100561.69;143731;589;46009;-70
2023/04/02 03:46:48;;;;;;;8.10;4.47;;;;;;;21.57;38.12;100557.31;143731;596;48008;-71
2023/04/02 03:49:54;;;;;;;11.73;4.72;;;;;;;21.57;38.19;100554.59;143729;850;46006;-70
2023/04/02 03:52:26;;;;;;;10.38;4.57;;;;;;;21.57;37.60;100546.38;143729;584;47002;-71
2023/04/02 03:54:55;;;;;;;12.57;4.10;;;;;;;21.58;37.56;100546.09;143711;592;50002;-71
2023/04/02 03:57:50;;;;;;;7.87;4.00;;;;;;;21.60;37.50;100554.03;143729;567;46004;-71
2023/04/02 04:00:41;;;;;;;;;;;;;;;21.61;37.66;100552.97;143732;981;47006;-70
2023/04/02 04:03:18;;;;;;;10.90;4.50;;;;;;;21.62;37.78;100551.88;143740;590;46008;-71
2023/04/02 04:06:10;;;;;;;14.38;5.50;;;;;;;21.62;37.92;100555.41;143726;915;47009;-71
2023/04/02 04:08:49;;;;;;;10.32;5.57;;;;;;;21.62;38.38;100558.16;143728;576;47004;-70
2023/04/02 04:11:21;;;;;;;9.00;4.53;;;;;;;21.62;38.28;100560.06;143726;590;48006;-70
2023/04/02 04:14:14;;;;;;;11.93;5.45;;;;;;;21.61;37.92;100564.72;143733;570;46015;-70
2023/04/02 04:17:03;;;;;;;11.50;5.00;;;;;;;21.64;37.73;100574.25;143730;576;47010;-70
2023/04/02 04:20:07;;;;;;;10.27;4.62;;;;;;;21.66;37.64;100585.72;143723;738;47002;-70
2023/04/02 04:22:33;;;;;;;8.05;4.45;;;;;;;21.65;37.07;100579.47;143727;588;46924;-71
2023/04/02 04:25:04;;;;;;;11.52;4.93;;;;;;;21.68;37.11;100574.53;143735;595;48000;-72
2023/04/02 04:28:06;;;;;;;12.02;4.60;;;;;;;21.67;37.50;100570.16;143727;578;47016;-70
2023/04/02 04:31:33;;;;;;;11.75;5.37;;;;;;;21.67;38.13;100581.09;143731;667;47928;-70
2023/04/02 04:34:15;;;;;;;10.55;5.00;;;;;;;21.65;37.92;100581.34;143730;576;46006;-70
2023/04/02 04:36:53;;;;;;;14.13;4.87;;;;;;;21.65;38.48;100584.09;143728;569;47002;-70
2023/04/02 04:39:35;;;;;;;11.45;4.75;;;;;;;21.64;38.22;100586.03;143725;569;48018;-70
2023/04/02 04:42:04;;;;;;;13.62;4.70;;;;;;;21.64;38.44;100591.50;143726;581;47002;-70
2023/04/02 04:45:12;;;;;;;6.75;3.72;;;;;;;21.64;37.37;100582.47;143729;570;47006;-70
2023/04/02 04:47:47;;;;;;;8.88;4.50;;;;;;;21.67;37.53;100592.03;143729;574;47002;-70
2023/04/02 04:50:37;;;;;;;10.70;5.15;;;;;;;21.66;37.96;100602.13;143732;567;47010;-71
2023/04/02 04:53:25;;;;;;;7.35;3.75;;;;;;;21.66;37.63;100607.59;143726;568;47004;-72
2023/04/02 04:56:01;;;;;;;14.10;4.20;;;;;;;21.65;37.80;100608.69;143733;637;46006;-71
2023/04/02 04:58:58;;;;;;;7.95;4.32;;;;;;;21.64;37.92;100610.63;143725;602;47994;-70
2023/04/02 05:01:47;;;;;;;12.77;4.32;;;;;;;21.62;37.55;100606.53;143730;591;46928;-70
2023/04/02 05:04:49;;;;;;;8.85;4.55;;;;;;;21.60;38.15;100609.53;143724;581;48002;-70
2023/04/02 05:07:30;;;;;;;9.60;4.30;;;;;;;21.62;37.83;100609.28;143731;937;46925;-71
2023/04/02 05:10:14;;;;;;;13.15;4.97;;;;;;;21.65;38.37;100608.69;143730;637;47002;-70
2023/04/02 05:12:51;;;;;;;9.48;4.30;;;;;;;21.67;37.85;100611.97;143730;596;47008;-70
2023/04/02 05:15:27;;;;;;;10.80;4.90;;;;;;;21.69;37.96;100608.97;143725;574;47013;-70
2023/04/02 05:18:41;;;;;;;9.85;4.07;;;;;;;21.69;38.67;100609.78;143726;598;47006;-70
2023/04/02 05:21:32;;;;;;;13.32;5.10;;;;;;;21.71;38.32;100613.06;143732;573;46007;-70
2023/04/02 05:24:34;;;;;;;11.60;4.80;;;;;;;21.74;38.65;100620.72;143727;575;47008;-70
2023/04/02 05:27:18;;;;;;;19.02;5.57;;;;;;;21.77;37.99;100630.28;143729;582;46009;-70
2023/04/02 05:29:50;;;;;;;12.43;5.20;;;;;;;21.80;37.75;100643.41;143729;586;46925;-70
2023/04/02 05:32:26;;;;;;;13.00;4.97;;;;;;;21.80;37.75;100636.00;143731;566;46004;-69
2023/04/02 05:34:55;;;;;;;12.60;5.32;;;;;;;21.81;37.40;100634.91;143720;585;50002;-70
2023/04/02 05:37:26;;;;;;;12.02;5.32;;;;;;;21.84;38.19;100630.81;143727;664;47926;-70
2023/04/02 05:40:12;;;;;;;13.82;5.25;;;;;;;21.85;38.36;100640.66;143726;638;47015;-69
2023/04/02 05:42:42;;;;;;;10.63;4.95;;;;;;;21.88;38.05;100642.00;143723;745;47004;-70
2023/04/02 05:45:28;;;;;;;12.75;5.25;;;;;;;21.88;38.25;100642.84;143722;570;48010;-69
2023/04/02 05:48:00;;;;;;;13.60;6.50;;;;;;;21.88;37.96;100650.22;143725;594;47012;-70
2023/04/02 05:50:41;;;;;;;12.90;7.30;;;;;;;21.88;37.67;100650.22;143726;583;47007;-70
2023/04/02 05:53:35;;;;;;;18.42;7.72;;;;;;;21.87;37.83;100649.41;143728;629;48002;-70
2023/04/02 05:56:19;;;;;;;17.02;7.60;;;;;;;21.86;37.63;100655.13;143728;575;47010;-70
2023/04/02 05:59:31;;;;;;;16.37;7.05;;;;;;;21.87;38.01;100645.84;143727;579;47014;-70
2023/04/02 06:02:07;;;;;;;11.95;6.03;;;;;;;21.89;38.39;100654.59;143725;567;48006;-70
2023/04/02 06:04:56;;;;;;;12.20;6.15;;;;;;;21.89;38.81;100647.19;143716;581;51015;-70
2023/04/02 06:07:43;;;;;;;18.17;6.95;;;;;;;21.91;38.76;100646.94;143720;590;47008;-70
2023/04/02 06:10:27;;;;;;;12.48;5.45;;;;;;;21.93;37.95;100659.22;143723;598;47004;-68
2023/04/02 06:13:13;;;;;;;13.17;6.53;;;;;;;21.98;37.99;100649.38;143721;596;47006;-69
2023/04/02 06:15:40;;;;;;;16.58;7.12;;;;;;;22.00;38.44;100655.38;143728;648;47008;-68
2023/04/02 06:18:16;;;;;;;16.62;7.32;;;;;;;22.03;37.94;100663.03;143725;572;47008;-70
2023/04/02 06:20:42;;;;;;;15.40;6.20;;;;;;;22.04;38.61;100651.81;143723;663;47014;-71
2023/04/02 06:23:31;;;;;;;17.08;5.85;;;;;;;22.07;38.72;100664.09;143724;725;47006;-71
2023/04/02 06:26:37;;;;;;;16.85;6.62;;;;;;;22.09;37.57;100665.47;143725;592;49006;-70
2023/04/02 06:29:41;;;;;;;16.73;6.80;;;;;;;22.12;37.35;100669.56;143722;580;47011;-70
2023/04/02 06:32:10;;;;;;;13.48;7.85;;;;;;;22.15;37.13;100669.03;143725;615;47004;-70
2023/04/02 06:34:39;;;;;;;11.95;7.10;;;;;;;22.17;37.04;100669.56;143725;589;47007;-70
2023/04/02 06:37:39;;;;;;;14.02;6.82;;;;;;;22.19;36.58;100666.53;143707;721;49014;-70
2023/04/02 06:40:20;;;;;;;13.65;6.80;;;;;;;22.21;36.58;100684.34;143724;580;47010;-70
2023/04/02 06:42:49;;;;;;;13.95;6.87;;;;;;;22.23;36.61;100687.59;143726;602;47002;-70
2023/04/02 06:45:31;;;;;;;15.48;7.40;;;;;;;22.25;36.90;100684.59;143727;595;46006;-71
2023/04/02 06:48:01;;;;;;;16.35;7.57;;;;;;;22.27;36.96;100693.34;143723;575;47002;-70
2023/04/02 06:50:55;;;;;;;15.82;7.43;;;;;;;22.30;36.59;100698.25;143723;597;47011;-70
2023/04/02 06:53:34;;;;;;;10.75;5.95;;;;;;;22.21;35.64;100698.00;143720;689;48002;-70
2023/04/02 06:56:26;;;;;;;13.77;7.12;;;;;;;22.25;35.86;100706.47;143721;574;48000;-70
2023/04/02 06:58:52;;;;;;;13.85;7.32;;;;;;;22.28;36.42;100703.19;143729;588;47004;-70
2023/04/02 07:01:24;;;;;;;13.05;5.60;;;;;;;22.29;35.72;100702.09;143724;574;47927;-70
2023/04/02 07:03:51;;;;;;;10.57;5.40;;;;;;;22.33;34.80;100711.34;143719;722;47004;-70
2023/04/02 07:06:20;;;;;;;9.68;4.47;;;;;;;22.34;34.04;100715.72;143723;688;47006;-69
2023/04/02 07:08:46;;;;;;;11.32;4.55;;;;;;;22.35;34.65;100719.31;143725;949;47004;-70
2023/04/02 07:11:19;;;;;;;13.32;5.22;;;;;;;22.36;34.91;100724.50;143727;601;47009;-71
2023/04/02 07:13:47;;;;;;;8.50;5.18;;;;;;;22.38;35.42;100721.50;143725;626;47004;-70
2023/04/02 07:16:24;;;;;;;12.40;5.05;;;;;;;22.38;35.46;100730.50;143729;578;47006;-70
2023/04/02 07:18:51;;;;;;;13.05;4.22;;;;;;;22.37;34.65;100737.06;143726;590;47002;-72
2023/04/02 07:21:17;;;;;;;7.30;3.65;;;;;;;22.37;34.97;100742.56;143727;755;47008;-70
2023/04/02 07:23:44;;;;;;;9.35;4.25;;;;;;;22.38;35.37;100743.38;143726;651;47008;-69
2023/04/02 07:26:15;;;;;;;10.98;4.03;;;;;;;22.36;35.06;100738.16;143726;569;47006;-70
2023/04/02 07:28:42;;;;;;;7.53;3.78;;;;;;;22.37;35.78;100741.75;143722;603;47004;-70
2023/04/02 07:31:20;;;;;;;13.45;5.68;;;;;;;22.37;36.46;100744.47;143728;574;47010;-72
2023/04/02 07:33:47;;;;;;;11.12;5.62;;;;;;;22.37;36.79;100758.16;143723;573;47004;-72
2023/04/02 07:36:18;;;;;;;10.85;5.10;;;;;;;22.36;37.82;100754.59;143725;643;47006;-72
2023/04/02 07:38:45;;;;;;;9.07;4.25;;;;;;;22.33;37.95;100759.81;143726;598;48000;-72
2023/04/02 07:41:12;;;;;;;8.73;4.28;;;;;;;22.32;38.76;100760.91;143726;581;47009;-71
2023/04/02 07:43:40;;;;;;;7.47;3.58;;;;;;;22.31;38.50;100756.53;143719;596;49008;-71
2023/04/02 07:46:07;;;;;;;7.90;3.37;;;;;;;22.27;38.49;100759.81;143729;593;47006;-73
2023/04/02 07:48:34;;;;;;;7.22;4.00;;;;;;;22.25;39.21;100769.41;143724;576;47002;-72
2023/04/02 07:51:02;;;;;;;8.88;4.22;;;;;;;22.23;38.90;100763.38;143727;576;47011;-71
2023/04/02 07:53:36;;;;;;;10.70;3.62;;;;;;;22.25;38.23;100767.47;143718;580;49004;-72
2023/04/02 07:56:04;;;;;;;8.00;3.08;;;;;;;22.25;37.81;100758.44;143728;601;46007;-72
2023/04/02 07:58:32;;;;;;;7.87;2.95;;;;;;;22.25;37.69;100751.06;143727;758;47004;-73
2023/04/02 08:01:00;;;;;;;10.65;4.95;;;;;;;22.27;38.80;100754.34;143727;592;47010;-72
2023/04/02 08:03:26;;;;;;;8.93;4.90;;;;;;;22.32;39.11;100760.91;143722;642;47013;-74
2023/04/02 08:05:55;;;;;;;6.87;3.72;;;;;;;22.30;38.34;100774.88;143727;573;47014;-71
2023/04/02 08:08:24;;;;;;;7.20;3.10;;;;;;;22.27;37.15;100762.53;143729;582;47002;-71
2023/04/02 08:10:50;;;;;;;8.63;3.10;;;;;;;22.27;37.08;100775.41;143728;580;47010;-72
2023/04/02 08:13:19;;;;;;;9.23;3.12;;;;;;;22.23;36.50;100774.31;143725;591;48002;-72
2023/04/02 08:15:45;;;;;;;9.60;3.90;;;;;;;22.21;36.76;100781.97;143728;567;47006;-73
2023/04/02 08:18:12;;;;;;;6.35;3.35;;;;;;;22.21;38.16;100785.56;143718;580;48000;-72
2023/04/02 08:20:38;;;;;;;7.07;2.83;;;;;;;22.23;37.18;100786.09;143727;568;47008;-73
2023/04/02 08:23:12;;;;;;;6.50;2.72;;;;;;;22.19;37.57;100787.75;143725;625;47008;-73
2023/04/02 08:25:38;;;;;;;5.47;2.70;;;;;;;22.18;39.16;100790.72;143728;592;47924;-73
2023/04/02 08:28:05;;;;;;;6.95;3.05;;;;;;;22.19;39.06;100789.63;143726;625;48000;-73
2023/04/02 08:30:31;;;;;;;6.12;2.50;;;;;;;22.19;39.12;100795.94;143725;573;47008;-74
2023/04/02 08:32:58;;;;;;;6.30;3.08;;;;;;;22.20;38.55;100796.75;143725;612;48004;-74
2023/04/02 08:35:24;;;;;;;7.80;3.53;;;;;;;22.17;39.11;100794.56;143725;589;47924;-74
2023/04/02 08:37:50;;;;;;;6.07;3.97;;;;;;;22.17;40.62;100795.41;143729;660;47004;-72
2023/04/02 08:40:51;;;;;;;7.90;3.20;;;;;;;22.14;40.90;100793.22;143727;578;47010;-75
2023/04/02 08:43:36;;;;;;;6.05;3.40;;;;;;;22.12;41.00;100800.88;143721;581;47004;-73
2023/04/02 08:46:29;;;;;;;6.60;2.50;;;;;;;22.08;41.55;100800.59;143725;572;47006;-73
2023/04/02 08:48:59;;;;;;;5.75;2.92;;;;;;;22.06;42.55;100796.50;143729;586;48000;-73
2023/04/02 08:51:29;;;;;;;7.60;2.83;;;;;;;22.07;42.08;100809.91;143728;628;47010;-74
2023/04/02 08:54:05;;;;;;;7.70;2.60;;;;;;;22.07;41.81;100814.53;143726;582;47002;-73
2023/04/02 08:56:48;;;;;;;4.62;2.30;;;;;;;22.08;43.24;100814.28;143728;601;46007;-75
2023/04/02 08:59:39;;;;;;;5.87;2.20;;;;;;;22.11;42.74;100812.91;143729;577;48000;-73
2023/04/02 09:02:36;;;;;;;7.05;2.50;;;;;;;22.15;43.18;100811.25;143727;591;47010;-74
2023/04/02 09:05:06;;;;;;;7.40;2.60;;;;;;;22.17;42.15;100811.81;143726;599;47004;-75
2023/04/02 09:07:33;;;;;;;7.47;3.10;;;;;;;22.20;41.29;100808.53;143729;691;46008;-75
2023/04/02 09:10:00;;;;;;;6.47;2.72;;;;;;;22.25;43.84;100811.25;143722;641;49006;-74
2023/04/02 09:12:31;;;;;;;5.43;2.50;;;;;;;22.27;43.00;100806.31;143728;572;47011;-74
2023/04/02 09:15:23;;;;;;;5.72;2.92;;;;;;;22.33;42.91;100803.59;143728;737;47006;-72
2023/04/02 09:18:15;;;;;;;6.22;2.67;;;;;;;22.35;40.87;100794.00;143726;577;48006;-75
2023/04/02 09:20:42;;;;;;;8.80;2.92;;;;;;;22.42;41.13;100793.72;143729;580;47004;-76
2023/04/02 09:23:27;;;;;;;7.43;2.58;;;;;;;22.50;39.29;100778.69;143727;568;47008;-75
2023/04/02 09:25:54;;;;;;;4.25;2.60;;;;;;;22.55;40.35;100774.03;143727;586;47004;-74
2023/04/02 09:28:22;;;;;;;8.05;3.60;;;;;;;22.62;40.33;100778.34;143720;595;48006;-76
2023/04/02 09:31:20;;;;;;;7.35;3.15;;;;;;;22.67;40.19;100775.63;143732;580;47002;-75
2023/04/02 09:33:48;;;;;;;10.70;5.85;;;;;;;22.70;40.95;100781.34;143725;587;47009;-76
2023/04/02 09:36:32;;;;;;;6.47;3.92;;;;;;;22.70;41.51;100770.41;143720;596;47004;-77
2023/04/02 09:39:16;;;;;;;7.95;3.83;;;;;;;22.69;41.39;100766.00;143725;634;47006;-75
2023/04/02 09:41:44;;;;;;;6.80;4.03;;;;;;;22.68;40.81;100772.59;143731;617;47004;-75
2023/04/02 09:44:13;;;;;;;9.02;4.43;;;;;;;22.69;40.90;100767.94;143727;592;47019;-74
2023/04/02 09:46:58;;;;;;;9.25;5.28;;;;;;;22.68;42.09;100752.63;143722;577;47004;-75
2023/04/02 09:49:33;;;;;;;10.40;4.43;;;;;;;22.69;41.85;100757.81;143728;577;46574;-75
2023/04/02 09:52:28;;;;;;;7.22;4.03;;;;;;;22.69;40.30;100751.53;143724;613;47004;-74
2023/04/02 09:55:33;;;;;;;7.97;5.80;;;;;;;22.71;39.78;100755.59;143730;694;47010;-75
2023/04/02 09:58:14;;;;;;;8.57;4.85;;;;;;;22.74;41.25;100750.69;143714;580;50002;-69
2023/04/02 10:00:50;;;;;;;6.60;4.78;;;;;;;22.78;39.76;100749.81;143726;593;47006;-68
2023/04/02 10:03:24;;;;;;;9.68;5.80;;;;;;;22.80;39.88;100747.62;143721;669;47002;-68
2023/04/02 10:06:09;;;;;;;12.02;6.80;;;;;;;22.80;39.80;100739.41;143728;598;47010;-68
2023/04/02 10:08:37;;;;;;;12.25;6.80;;;;;;;22.82;40.61;100731.75;143720;696;50013;-69
2023/04/02 10:11:13;;;;;;;10.25;6.93;;;;;;;22.83;40.05;100719.69;143727;600;47006;-68
2023/04/02 10:13:55;;;;;;;9.75;6.55;;;;;;;22.86;39.67;100713.66;143726;653;47004;-69
2023/04/02 10:16:40;;;;;;;9.63;5.90;;;;;;;22.93;40.33;100709.81;143723;579;48008;-69
2023/04/02 10:19:35;;;;;;;9.90;5.43;;;;;;;23.04;39.30;100716.84;143723;584;47004;-68
2023/04/02 10:22:19;;;;;;;9.43;5.43;;;;;;;23.14;39.57;100715.97;143726;586;47006;-70
2023/04/02 10:24:45;;;;;;;9.05;5.30;;;;;;;23.24;39.37;100718.66;143725;672;50008;-69
2023/04/02 10:27:40;;;;;;;8.95;5.65;;;;;;;23.36;38.59;100721.06;143727;702;47008;-70
2023/04/02 10:30:19;;;;;;;8.93;4.28;;;;;;;23.40;36.29;100729.50;143722;659;47011;-69
2023/04/02 10:33:11;;;;;;;7.22;4.15;;;;;;;23.37;36.44;100719.16;143727;590;47006;-69
2023/04/02 10:36:01;;;;;;;12.80;4.15;;;;;;;23.35;36.13;100710.38;143728;627;47004;-69
2023/04/02 10:38:50;;;;;;;6.18;4.75;;;;;;;23.36;35.67;100703.81;143718;600;47010;-69
2023/04/02 10:41:58;;;;;;;9.60;4.57;;;;;;;23.35;35.48;100700.22;143723;711;48004;-68
2023/04/02 10:44:41;;;;;;;8.43;4.30;;;;;;;23.37;35.21;100705.44;143725;602;47006;-68
2023/04/02 10:47:49;;;;;;;6.20;2.62;;;;;;;23.28;32.68;100692.34;143727;573;48002;-69
2023/04/02 10:51:01;;;;;;;7.90;4.18;;;;;;;23.32;34.38;100689.84;143729;613;47008;-69
2023/04/02 10:53:57;;;;;;;6.82;3.28;;;;;;;23.34;32.99;100681.34;143725;580;47004;-68
2023/04/02 10:56:26;;;;;;;5.75;3.78;;;;;;;23.22;33.82;100678.97;143723;602;47006;-66
2023/04/02 10:59:14;;;;;;;7.93;4.18;;;;;;;23.27;34.58;100682.47;143719;592;50000;-68
2023/04/02 11:01:42;;;;;;;7.82;3.78;;;;;;;23.35;34.38;100691.22;143721;592;48012;-65
2023/04/02 11:04:42;;;;;;;8.85;4.05;;;;;;;23.42;34.41;100678.81;143720;587;48925;-68
2023/04/02 11:07:16;;;;;;;9.18;4.97;;;;;;;23.47;34.24;100678.75;143721;703;48000;-68
2023/04/02 11:09:44;;;;;;;;;;;;;;;23.55;33.99;100676.50;143734;986;47009;-68
2023/04/02 11:12:21;;;;;;;8.07;3.78;;;;;;;23.63;33.72;100678.66;143730;577;47010;-69
2023/04/02 11:14:49;;;;;;;6.60;3.37;;;;;;;23.65;33.17;100683.81;143727;669;47013;-69
2023/04/02 11:17:17;;;;;;;5.43;2.20;;;;;;;23.69;32.52;100685.69;143726;604;48007;-69
2023/04/02 11:19:43;;;;;;;6.50;2.42;;;;;;;23.73;32.57;100680.47;143727;568;47002;-68
2023/04/02 11:22:21;;;;;;;4.50;2.50;;;;;;;23.67;32.09;100676.94;143725;595;47927;-68
2023/04/02 11:24:52;;;;;;;6.47;3.10;;;;;;;23.64;33.20;100669.31;143720;569;47004;-68
2023/04/02 11:27:31;;;;;;;6.12;2.70;;;;;;;23.68;32.93;100678.56;143727;641;48006;-68
2023/04/02 11:30:38;;;;;;;5.10;2.20;;;;;;;23.75;32.29;100670.00;143731;573;47002;-69
2023/04/02 11:33:52;;;;;;;9.77;3.55;;;;;;;23.75;33.93;100667.28;143728;578;46010;-68
2023/04/02 11:37:11;;;;;;;5.18;2.50;;;;;;;23.76;33.33;100657.94;143727;570;47004;-69
2023/04/02 11:39:58;;;;;;;6.97;2.25;;;;;;;23.67;31.88;100654.19;143727;601;47006;-68
2023/04/02 11:42:30;;;;;;;4.93;2.62;;;;;;;23.59;32.97;100645.47;143726;574;48002;-67
2023/04/02 11:45:00;;;;;;;5.90;2.58;;;;;;;23.67;33.14;100643.22;143720;709;47016;-68
2023/04/02 11:47:29;;;;;;;4.30;2.50;;;;;;;23.72;33.19;100645.94;143724;567;48004;-67
2023/04/02 11:50:00;;;;;;;4.25;2.47;;;;;;;23.75;33.07;100640.69;143728;647;47006;-69
2023/04/02 11:52:48;;;;;;;6.10;2.90;;;;;;;23.79;32.72;100642.84;143725;566;47006;-68
2023/04/02 11:55:26;;;;;;;4.30;2.28;;;;;;;23.82;33.02;100634.03;143724;677;47008;-68
2023/04/02 11:58:29;;;;;;;4.05;2.10;;;;;;;23.76;32.64;100639.56;143726;577;47004;-68
2023/04/02 12:01:34;;;;;;;4.80;2.50;;;;;;;23.82;32.80;100634.03;143727;584;47006;-66
2023/04/02 12:04:40;;;;;;;5.80;2.30;;;;;;;23.90;33.59;100636.97;143722;757;48004;-68
2023/04/02 12:08:04;;;;;;;5.85;2.15;;;;;;;24.02;33.28;100625.59;143723;604;49002;-69
2023/04/02 12:10:54;;;;;;;6.53;4.05;;;;;;;24.13;33.16;100630.97;143728;624;47004;-69
2023/04/02 12:13:41;;;;;;;3.90;2.53;;;;;;;24.17;33.47;100630.09;143725;723;47006;-69
2023/04/02 12:16:09;;;;;;;6.55;2.33;;;;;;;24.20;33.91;100623.19;143727;590;47002;-68
2023/04/02 12:18:45;;;;;;;5.22;2.78;;;;;;;24.21;34.29;100616.59;143728;608;47008;-68
2023/04/02 12:21:18;;;;;;;3.22;2.30;;;;;;;24.22;33.63;100605.34;143721;617;47004;-67
2023/04/02 12:23:48;;;;;;;4.80;2.20;;;;;;;24.17;33.05;100602.66;143725;689;48006;-69